sensor_id;sensor_type;location;lat;lon;timestamp;pressure;altitude;pressure_sealevel;temperature;humidity
57024;BME280;42916;54.346;18.562;2022-08-21T00:01:13;100055.71;;;20.41;100.00
57024;BME280;42916;54.346;18.562;2022-08-21T00:03:40;100056.91;;;20.40;100.00
57024;BME280;42916;54.346;18.562;2022-08-21T00:06:06;100061.42;;;20.40;100.00
57024;BME280;42916;54.346;18.562;2022-08-21T00:08:32;100062.39;;;20.43;100.00
57024;BME280;42916;54.346;18.562;2022-08-21T00:10:58;100060.70;;;20.45;100.00
57024;BME280;42916;54.346;18.562;2022-08-21T00:13:24;100054.84;;;20.47;100.00
57024;BME280;42916;54.346;18.562;2022-08-21T00:15:50;100047.79;;;20.46;100.00
57024;BME280;42916;54.346;18.562;2022-08-21T00:18:18;100049.39;;;20.45;100.00
57024;BME280;42916;54.346;18.562;2022-08-21T00:20:46;100049.77;;;20.42;100.00
57024;BME280;42916;54.346;18.562;2022-08-21T00:23:13;100053.59;;;20.43;100.00
57024;BME280;42916;54.346;18.562;2022-08-21T00:25:41;100055.27;;;20.46;100.00
57024;BME280;42916;54.346;18.562;2022-08-21T00:28:07;100054.62;;;20.45;100.00
57024;BME280;42916;54.346;18.562;2022-08-21T00:30:34;100053.13;;;20.45;100.00
57024;BME280;42916;54.346;18.562;2022-08-21T00:33:00;100050.27;;;20.47;100.00
57024;BME280;42916;54.346;18.562;2022-08-21T00:35:30;100052.98;;;20.51;100.00
57024;BME280;42916;54.346;18.562;2022-08-21T00:37:57;100055.33;;;20.49;100.00
57024;BME280;42916;54.346;18.562;2022-08-21T00:40:29;100050.14;;;20.44;100.00
57024;BME280;42916;54.346;18.562;2022-08-21T00:42:56;100042.61;;;20.40;100.00
57024;BME280;42916;54.346;18.562;2022-08-21T00:45:23;100036.59;;;20.35;100.00
57024;BME280;42916;54.346;18.562;2022-08-21T00:47:51;100035.19;;;20.34;100.00
57024;BME280;42916;54.346;18.562;2022-08-21T00:50:17;100034.73;;;20.30;100.00
57024;BME280;42916;54.346;18.562;2022-08-21T00:52:45;100031.08;;;20.30;100.00
57024;BME280;42916;54.346;18.562;2022-08-21T00:55:11;100029.09;;;20.29;100.00
57024;BME280;42916;54.346;18.562;2022-08-21T00:57:45;100030.91;;;20.31;100.00
57024;BME280;42916;54.346;18.562;2022-08-21T01:00:17;100037.04;;;20.35;100.00
57024;BME280;42916;54.346;18.562;2022-08-21T01:02:45;100040.00;;;20.32;100.00
57024;BME280;42916;54.346;18.562;2022-08-21T01:05:11;100040.08;;;20.31;100.00
57024;BME280;42916;54.346;18.562;2022-08-21T01:07:37;100040.69;;;20.31;100.00
57024;BME280;42916;54.346;18.562;2022-08-21T01:10:06;100043.55;;;20.30;100.00
57024;BME280;42916;54.346;18.562;2022-08-21T01:12:33;100046.70;;;20.31;100.00
57024;BME280;42916;54.346;18.562;2022-08-21T01:15:02;100042.15;;;20.34;100.00
57024;BME280;42916;54.346;18.562;2022-08-21T01:17:30;100038.73;;;20.34;100.00
57024;BME280;42916;54.346;18.562;2022-08-21T01:19:58;100041.83;;;20.30;100.00
57024;BME280;42916;54.346;18.562;2022-08-21T01:22:25;100038.04;;;20.28;100.00
57024;BME280;42916;54.346;18.562;2022-08-21T01:24:52;100034.62;;;20.29;100.00
57024;BME280;42916;54.346;18.562;2022-08-21T01:27:18;100034.42;;;20.30;100.00
57024;BME280;42916;54.346;18.562;2022-08-21T01:29:51;100037.60;;;20.33;100.00
57024;BME280;42916;54.346;18.562;2022-08-21T01:32:19;100035.69;;;20.32;100.00
57024;BME280;42916;54.346;18.562;2022-08-21T01:34:48;100038.45;;;20.30;100.00
57024;BME280;42916;54.346;18.562;2022-08-21T01:37:15;100035.95;;;20.31;100.00
57024;BME280;42916;54.346;18.562;2022-08-21T01:39:42;100037.75;;;20.35;100.00
57024;BME280;42916;54.346;18.562;2022-08-21T01:42:08;100033.04;;;20.35;100.00
57024;BME280;42916;54.346;18.562;2022-08-21T01:44:35;100035.94;;;20.33;100.00
57024;BME280;42916;54.346;18.562;2022-08-21T01:47:04;100032.58;;;20.29;100.00
57024;BME280;42916;54.346;18.562;2022-08-21T01:49:31;100031.14;;;20.31;100.00
57024;BME280;42916;54.346;18.562;2022-08-21T01:51:57;100036.16;;;20.32;100.00
57024;BME280;42916;54.346;18.562;2022-08-21T01:54:23;100034.27;;;20.32;100.00
57024;BME280;42916;54.346;18.562;2022-08-21T01:56:52;100034.80;;;20.32;100.00
57024;BME280;42916;54.346;18.562;2022-08-21T01:59:19;100027.85;;;20.32;100.00
57024;BME280;42916;54.346;18.562;2022-08-21T02:01:46;100020.05;;;20.30;100.00
57024;BME280;42916;54.346;18.562;2022-08-21T02:04:11;100020.45;;;20.30;100.00
57024;BME280;42916;54.346;18.562;2022-08-21T02:06:38;100028.06;;;20.29;100.00
57024;BME280;42916;54.346;18.562;2022-08-21T02:09:05;100024.71;;;20.27;100.00
57024;BME280;42916;54.346;18.562;2022-08-21T02:11:32;100020.35;;;20.24;100.00
57024;BME280;42916;54.346;18.562;2022-08-21T02:13:58;100024.18;;;20.22;100.00
57024;BME280;42916;54.346;18.562;2022-08-21T02:16:24;100023.34;;;20.19;100.00
57024;BME280;42916;54.346;18.562;2022-08-21T02:18:50;100020.39;;;20.16;100.00
57024;BME280;42916;54.346;18.562;2022-08-21T02:21:17;100014.94;;;20.14;100.00
57024;BME280;42916;54.346;18.562;2022-08-21T02:23:43;100013.02;;;20.13;100.00
57024;BME280;42916;54.346;18.562;2022-08-21T02:26:10;100017.54;;;20.16;100.00
57024;BME280;42916;54.346;18.562;2022-08-21T02:28:38;100012.96;;;20.16;100.00
57024;BME280;42916;54.346;18.562;2022-08-21T02:31:05;100014.77;;;20.16;100.00
57024;BME280;42916;54.346;18.562;2022-08-21T02:33:32;100010.05;;;20.14;100.00
57024;BME280;42916;54.346;18.562;2022-08-21T02:35:59;100013.15;;;20.14;100.00
57024;BME280;42916;54.346;18.562;2022-08-21T02:38:28;100010.23;;;20.16;100.00
57024;BME280;42916;54.346;18.562;2022-08-21T02:40:56;100005.48;;;20.16;100.00
57024;BME280;42916;54.346;18.562;2022-08-21T02:43:24;100006.55;;;20.15;100.00
57024;BME280;42916;54.346;18.562;2022-08-21T02:45:51;100004.45;;;20.12;100.00
57024;BME280;42916;54.346;18.562;2022-08-21T02:48:22;100000.82;;;20.10;100.00
57024;BME280;42916;54.346;18.562;2022-08-21T02:50:59;99996.11;;;20.11;100.00
57024;BME280;42916;54.346;18.562;2022-08-21T02:53:27;99994.41;;;20.10;100.00
57024;BME280;42916;54.346;18.562;2022-08-21T02:55:53;99992.43;;;20.08;100.00
57024;BME280;42916;54.346;18.562;2022-08-21T02:58:26;99990.30;;;20.08;100.00
57024;BME280;42916;54.346;18.562;2022-08-21T03:00:53;99990.75;;;20.09;100.00
57024;BME280;42916;54.346;18.562;2022-08-21T03:03:19;99989.35;;;20.11;100.00
57024;BME280;42916;54.346;18.562;2022-08-21T03:05:47;99987.30;;;20.13;100.00
57024;BME280;42916;54.346;18.562;2022-08-21T03:08:14;99988.63;;;20.13;100.00
57024;BME280;42916;54.346;18.562;2022-08-21T03:10:43;99993.61;;;20.11;100.00
57024;BME280;42916;54.346;18.562;2022-08-21T03:13:09;99991.83;;;20.08;100.00
57024;BME280;42916;54.346;18.562;2022-08-21T03:15:36;99992.01;;;20.03;100.00
57024;BME280;42916;54.346;18.562;2022-08-21T03:18:03;99993.83;;;20.02;100.00
57024;BME280;42916;54.346;18.562;2022-08-21T03:20:30;99990.02;;;20.03;100.00
57024;BME280;42916;54.346;18.562;2022-08-21T03:22:58;99995.11;;;20.04;100.00
57024;BME280;42916;54.346;18.562;2022-08-21T03:25:26;99993.10;;;20.05;100.00
57024;BME280;42916;54.346;18.562;2022-08-21T03:27:52;99990.23;;;20.06;100.00
57024;BME280;42916;54.346;18.562;2022-08-21T03:30:20;99988.68;;;20.07;100.00
57024;BME280;42916;54.346;18.562;2022-08-21T03:32:47;99992.65;;;20.07;100.00
57024;BME280;42916;54.346;18.562;2022-08-21T03:35:14;99996.23;;;20.10;100.00
57024;BME280;42916;54.346;18.562;2022-08-21T03:37:40;99995.13;;;20.14;100.00
57024;BME280;42916;54.346;18.562;2022-08-21T03:40:08;99992.16;;;20.15;100.00
57024;BME280;42916;54.346;18.562;2022-08-21T03:42:34;99998.59;;;20.17;100.00
57024;BME280;42916;54.346;18.562;2022-08-21T03:45:01;100002.59;;;20.20;100.00
57024;BME280;42916;54.346;18.562;2022-08-21T03:47:27;100000.17;;;20.21;100.00
57024;BME280;42916;54.346;18.562;2022-08-21T03:49:53;100003.31;;;20.23;100.00
57024;BME280;42916;54.346;18.562;2022-08-21T03:52:19;100001.72;;;20.24;100.00
57024;BME280;42916;54.346;18.562;2022-08-21T03:54:45;100002.69;;;20.23;100.00
57024;BME280;42916;54.346;18.562;2022-08-21T03:57:12;100007.64;;;20.24;100.00
57024;BME280;42916;54.346;18.562;2022-08-21T03:59:38;100011.35;;;20.24;100.00
57024;BME280;42916;54.346;18.562;2022-08-21T04:02:10;100012.05;;;20.22;100.00
57024;BME280;42916;54.346;18.562;2022-08-21T04:04:36;100013.68;;;20.21;100.00
57024;BME280;42916;54.346;18.562;2022-08-21T04:07:02;100014.41;;;20.20;100.00
57024;BME280;42916;54.346;18.562;2022-08-21T04:09:28;100014.77;;;20.19;100.00
57024;BME280;42916;54.346;18.562;2022-08-21T04:11:56;100016.67;;;20.21;100.00
57024;BME280;42916;54.346;18.562;2022-08-21T04:14:22;100018.36;;;20.24;100.00
57024;BME280;42916;54.346;18.562;2022-08-21T04:16:48;100019.88;;;20.26;100.00
57024;BME280;42916;54.346;18.562;2022-08-21T04:19:14;100021.83;;;20.25;100.00
57024;BME280;42916;54.346;18.562;2022-08-21T04:21:41;100019.45;;;20.25;100.00
57024;BME280;42916;54.346;18.562;2022-08-21T04:24:09;100020.44;;;20.26;100.00
57024;BME280;42916;54.346;18.562;2022-08-21T04:26:37;100019.77;;;20.27;100.00
57024;BME280;42916;54.346;18.562;2022-08-21T04:29:04;100020.88;;;20.27;100.00
57024;BME280;42916;54.346;18.562;2022-08-21T04:31:32;100022.98;;;20.26;100.00
57024;BME280;42916;54.346;18.562;2022-08-21T04:33:59;100020.82;;;20.26;100.00
57024;BME280;42916;54.346;18.562;2022-08-21T04:36:25;100024.30;;;20.24;100.00
57024;BME280;42916;54.346;18.562;2022-08-21T04:38:51;100018.63;;;20.21;100.00
57024;BME280;42916;54.346;18.562;2022-08-21T04:41:17;100016.84;;;20.20;100.00
57024;BME280;42916;54.346;18.562;2022-08-21T04:43:44;100017.09;;;20.22;100.00
57024;BME280;42916;54.346;18.562;2022-08-21T04:46:10;100021.94;;;20.24;100.00
57024;BME280;42916;54.346;18.562;2022-08-21T04:48:36;100019.40;;;20.26;100.00
57024;BME280;42916;54.346;18.562;2022-08-21T04:51:23;100021.99;;;20.26;100.00
57024;BME280;42916;54.346;18.562;2022-08-21T04:53:58;100021.60;;;20.24;100.00
57024;BME280;42916;54.346;18.562;2022-08-21T04:56:29;100021.84;;;20.24;100.00
57024;BME280;42916;54.346;18.562;2022-08-21T04:59:01;100025.35;;;20.25;100.00
57024;BME280;42916;54.346;18.562;2022-08-21T05:01:30;100029.73;;;20.26;100.00
57024;BME280;42916;54.346;18.562;2022-08-21T05:03:59;100031.80;;;20.26;100.00
57024;BME280;42916;54.346;18.562;2022-08-21T05:06:28;100035.48;;;20.30;100.00
57024;BME280;42916;54.346;18.562;2022-08-21T05:08:56;100041.02;;;20.31;100.00
57024;BME280;42916;54.346;18.562;2022-08-21T05:11:24;100040.27;;;20.32;100.00
57024;BME280;42916;54.346;18.562;2022-08-21T05:13:50;100041.73;;;20.33;100.00
57024;BME280;42916;54.346;18.562;2022-08-21T05:16:16;100040.85;;;20.33;100.00
57024;BME280;42916;54.346;18.562;2022-08-21T05:18:43;100046.09;;;20.38;100.00
57024;BME280;42916;54.346;18.562;2022-08-21T05:21:09;100046.67;;;20.39;100.00
57024;BME280;42916;54.346;18.562;2022-08-21T05:23:35;100050.39;;;20.39;100.00
57024;BME280;42916;54.346;18.562;2022-08-21T05:26:01;100050.45;;;20.36;100.00
57024;BME280;42916;54.346;18.562;2022-08-21T05:28:27;100048.88;;;20.34;100.00
57024;BME280;42916;54.346;18.562;2022-08-21T05:30:53;100051.41;;;20.31;100.00
57024;BME280;42916;54.346;18.562;2022-08-21T05:33:19;100050.48;;;20.32;100.00
57024;BME280;42916;54.346;18.562;2022-08-21T05:35:45;100053.61;;;20.35;100.00
57024;BME280;42916;54.346;18.562;2022-08-21T05:38:14;100054.98;;;20.37;100.00
57024;BME280;42916;54.346;18.562;2022-08-21T05:40:40;100062.63;;;20.41;100.00
57024;BME280;42916;54.346;18.562;2022-08-21T05:43:06;100063.36;;;20.45;100.00
57024;BME280;42916;54.346;18.562;2022-08-21T05:45:32;100061.96;;;20.47;100.00
57024;BME280;42916;54.346;18.562;2022-08-21T05:48:08;100058.55;;;20.45;100.00
57024;BME280;42916;54.346;18.562;2022-08-21T05:50:35;100063.54;;;20.43;100.00
57024;BME280;42916;54.346;18.562;2022-08-21T05:53:03;100062.78;;;20.43;100.00
57024;BME280;42916;54.346;18.562;2022-08-21T05:55:30;100066.17;;;20.40;100.00
57024;BME280;42916;54.346;18.562;2022-08-21T05:57:55;100063.64;;;20.37;100.00
57024;BME280;42916;54.346;18.562;2022-08-21T06:00:21;100062.59;;;20.32;100.00
57024;BME280;42916;54.346;18.562;2022-08-21T06:02:49;100060.33;;;20.30;100.00
57024;BME280;42916;54.346;18.562;2022-08-21T06:05:17;100058.89;;;20.34;100.00
57024;BME280;42916;54.346;18.562;2022-08-21T06:07:43;100058.15;;;20.39;100.00
57024;BME280;42916;54.346;18.562;2022-08-21T06:10:09;100058.30;;;20.44;100.00
57024;BME280;42916;54.346;18.562;2022-08-21T06:12:36;100062.16;;;20.54;100.00
57024;BME280;42916;54.346;18.562;2022-08-21T06:15:02;100059.10;;;20.63;100.00
57024;BME280;42916;54.346;18.562;2022-08-21T06:17:29;100057.23;;;20.64;100.00
57024;BME280;42916;54.346;18.562;2022-08-21T06:19:55;100051.58;;;20.66;100.00
57024;BME280;42916;54.346;18.562;2022-08-21T06:22:21;100049.35;;;20.72;100.00
57024;BME280;42916;54.346;18.562;2022-08-21T06:24:47;100049.74;;;20.72;100.00
57024;BME280;42916;54.346;18.562;2022-08-21T06:27:14;100046.13;;;20.72;100.00
57024;BME280;42916;54.346;18.562;2022-08-21T06:29:41;100045.09;;;20.70;100.00
57024;BME280;42916;54.346;18.562;2022-08-21T06:32:11;100041.39;;;20.70;100.00
57024;BME280;42916;54.346;18.562;2022-08-21T06:34:39;100045.82;;;20.65;100.00
57024;BME280;42916;54.346;18.562;2022-08-21T06:37:05;100045.08;;;20.61;100.00
57024;BME280;42916;54.346;18.562;2022-08-21T06:39:32;100043.01;;;20.58;100.00
57024;BME280;42916;54.346;18.562;2022-08-21T06:41:58;100041.48;;;20.58;100.00
57024;BME280;42916;54.346;18.562;2022-08-21T06:44:27;100041.05;;;20.59;100.00
57024;BME280;42916;54.346;18.562;2022-08-21T06:46:52;100041.61;;;20.57;100.00
57024;BME280;42916;54.346;18.562;2022-08-21T06:49:18;100044.47;;;20.58;100.00
57024;BME280;42916;54.346;18.562;2022-08-21T06:51:44;100048.13;;;20.58;100.00
57024;BME280;42916;54.346;18.562;2022-08-21T06:54:10;100054.82;;;20.55;100.00
57024;BME280;42916;54.346;18.562;2022-08-21T06:56:36;100053.17;;;20.48;100.00
57024;BME280;42916;54.346;18.562;2022-08-21T06:59:04;100060.83;;;20.43;100.00
57024;BME280;42916;54.346;18.562;2022-08-21T07:01:31;100058.58;;;20.38;100.00
57024;BME280;42916;54.346;18.562;2022-08-21T07:03:58;100061.07;;;20.32;100.00
57024;BME280;42916;54.346;18.562;2022-08-21T07:06:24;100067.08;;;20.28;100.00
57024;BME280;42916;54.346;18.562;2022-08-21T07:08:50;100071.94;;;20.24;100.00
57024;BME280;42916;54.346;18.562;2022-08-21T07:11:19;100072.53;;;20.18;100.00
57024;BME280;42916;54.346;18.562;2022-08-21T07:13:45;100073.30;;;20.11;100.00
57024;BME280;42916;54.346;18.562;2022-08-21T07:16:11;100076.36;;;20.06;100.00
57024;BME280;42916;54.346;18.562;2022-08-21T07:18:37;100077.05;;;20.03;100.00
57024;BME280;42916;54.346;18.562;2022-08-21T07:21:05;100074.77;;;20.00;100.00
57024;BME280;42916;54.346;18.562;2022-08-21T07:23:43;100070.59;;;19.94;100.00
57024;BME280;42916;54.346;18.562;2022-08-21T07:26:11;100075.49;;;19.89;100.00
57024;BME280;42916;54.346;18.562;2022-08-21T07:28:37;100077.21;;;19.84;100.00
57024;BME280;42916;54.346;18.562;2022-08-21T07:31:04;100079.79;;;19.80;100.00
57024;BME280;42916;54.346;18.562;2022-08-21T07:33:31;100075.38;;;19.76;100.00
57024;BME280;42916;54.346;18.562;2022-08-21T07:35:58;100072.25;;;19.71;100.00
57024;BME280;42916;54.346;18.562;2022-08-21T07:38:25;100073.46;;;19.64;100.00
57024;BME280;42916;54.346;18.562;2022-08-21T07:40:54;100071.31;;;19.59;100.00
57024;BME280;42916;54.346;18.562;2022-08-21T07:43:21;100075.14;;;19.54;100.00
57024;BME280;42916;54.346;18.562;2022-08-21T07:45:48;100079.06;;;19.51;100.00
57024;BME280;42916;54.346;18.562;2022-08-21T07:48:15;100080.97;;;19.49;100.00
57024;BME280;42916;54.346;18.562;2022-08-21T07:50:42;100077.17;;;19.49;100.00
57024;BME280;42916;54.346;18.562;2022-08-21T07:53:08;100075.36;;;19.49;100.00
57024;BME280;42916;54.346;18.562;2022-08-21T07:55:34;100078.34;;;19.51;100.00
57024;BME280;42916;54.346;18.562;2022-08-21T07:58:00;100087.67;;;19.56;100.00
57024;BME280;42916;54.346;18.562;2022-08-21T08:00:28;100091.40;;;19.59;100.00
57024;BME280;42916;54.346;18.562;2022-08-21T08:02:55;100086.99;;;19.59;100.00
57024;BME280;42916;54.346;18.562;2022-08-21T08:05:28;100087.52;;;19.61;100.00
57024;BME280;42916;54.346;18.562;2022-08-21T08:07:54;100081.26;;;19.64;100.00
57024;BME280;42916;54.346;18.562;2022-08-21T08:10:21;100080.70;;;19.69;100.00
57024;BME280;42916;54.346;18.562;2022-08-21T08:12:49;100075.40;;;19.77;100.00
57024;BME280;42916;54.346;18.562;2022-08-21T08:15:17;100082.52;;;19.86;100.00
57024;BME280;42916;54.346;18.562;2022-08-21T08:17:44;100078.16;;;19.91;100.00
57024;BME280;42916;54.346;18.562;2022-08-21T08:20:12;100082.57;;;19.96;100.00
57024;BME280;42916;54.346;18.562;2022-08-21T08:22:40;100083.38;;;20.06;100.00
57024;BME280;42916;54.346;18.562;2022-08-21T08:25:07;100086.00;;;20.19;100.00
57024;BME280;42916;54.346;18.562;2022-08-21T08:27:34;100088.50;;;20.29;100.00
57024;BME280;42916;54.346;18.562;2022-08-21T08:30:00;100089.39;;;20.34;100.00
57024;BME280;42916;54.346;18.562;2022-08-21T08:32:27;100095.01;;;20.36;100.00
57024;BME280;42916;54.346;18.562;2022-08-21T08:34:53;100097.84;;;20.37;100.00
57024;BME280;42916;54.346;18.562;2022-08-21T08:37:20;100095.80;;;20.39;100.00
57024;BME280;42916;54.346;18.562;2022-08-21T08:39:46;100092.44;;;20.42;100.00
57024;BME280;42916;54.346;18.562;2022-08-21T08:42:15;100098.42;;;20.43;100.00
57024;BME280;42916;54.346;18.562;2022-08-21T08:44:43;100102.86;;;20.42;100.00
57024;BME280;42916;54.346;18.562;2022-08-21T08:47:13;100103.26;;;20.40;100.00
57024;BME280;42916;54.346;18.562;2022-08-21T08:49:46;100103.72;;;20.38;100.00
57024;BME280;42916;54.346;18.562;2022-08-21T08:52:22;100099.55;;;20.37;100.00
57024;BME280;42916;54.346;18.562;2022-08-21T08:55:20;100096.54;;;20.42;100.00
57024;BME280;42916;54.346;18.562;2022-08-21T08:57:48;100087.39;;;20.53;100.00
57024;BME280;42916;54.346;18.562;2022-08-21T09:00:19;100088.01;;;20.63;100.00
57024;BME280;42916;54.346;18.562;2022-08-21T09:02:47;100088.13;;;20.74;100.00
57024;BME280;42916;54.346;18.562;2022-08-21T09:05:29;100090.17;;;20.85;100.00
57024;BME280;42916;54.346;18.562;2022-08-21T09:10:51;100080.67;;;20.98;100.00
57024;BME280;42916;54.346;18.562;2022-08-21T09:13:38;100084.83;;;21.04;100.00
57024;BME280;42916;54.346;18.562;2022-08-21T09:19:11;100084.00;;;21.09;100.00
57024;BME280;42916;54.346;18.562;2022-08-21T09:27:23;100091.55;;;20.88;100.00
57024;BME280;42916;54.346;18.562;2022-08-21T09:29:52;100089.79;;;20.82;100.00
57024;BME280;42916;54.346;18.562;2022-08-21T09:32:31;100091.24;;;20.73;100.00
57024;BME280;42916;54.346;18.562;2022-08-21T09:35:07;100092.39;;;20.66;100.00
57024;BME280;42916;54.346;18.562;2022-08-21T09:45:39;100083.37;;;20.44;100.00
57024;BME280;42916;54.346;18.562;2022-08-21T09:48:24;100089.07;;;20.37;100.00
57024;BME280;42916;54.346;18.562;2022-08-21T09:50:52;100093.48;;;20.27;100.00
57024;BME280;42916;54.346;18.562;2022-08-21T09:53:27;100091.27;;;20.20;100.00
57024;BME280;42916;54.346;18.562;2022-08-21T09:55:56;100087.95;;;20.12;100.00
57024;BME280;42916;54.346;18.562;2022-08-21T09:58:45;100091.82;;;20.09;100.00
57024;BME280;42916;54.346;18.562;2022-08-21T10:01:19;100099.70;;;20.11;100.00
57024;BME280;42916;54.346;18.562;2022-08-21T10:03:46;100110.30;;;20.11;100.00
57024;BME280;42916;54.346;18.562;2022-08-21T10:06:25;100117.52;;;20.10;100.00
57024;BME280;42916;54.346;18.562;2022-08-21T10:09:10;100119.73;;;20.09;100.00
57024;BME280;42916;54.346;18.562;2022-08-21T10:11:37;100119.65;;;20.10;100.00
57024;BME280;42916;54.346;18.562;2022-08-21T10:14:30;100118.41;;;20.08;100.00
57024;BME280;42916;54.346;18.562;2022-08-21T10:17:07;100114.98;;;20.03;100.00
57024;BME280;42916;54.346;18.562;2022-08-21T10:19:56;100108.68;;;20.00;100.00
57024;BME280;42916;54.346;18.562;2022-08-21T10:25:43;100098.83;;;20.11;100.00
57024;BME280;42916;54.346;18.562;2022-08-21T10:29:02;100104.17;;;20.18;100.00
57024;BME280;42916;54.346;18.562;2022-08-21T10:34:27;100111.93;;;20.27;100.00
57024;BME280;42916;54.346;18.562;2022-08-21T10:37:23;100116.02;;;20.30;100.00
57024;BME280;42916;54.346;18.562;2022-08-21T10:40:21;100116.11;;;20.34;100.00
57024;BME280;42916;54.346;18.562;2022-08-21T10:45:47;100117.46;;;20.36;100.00
57024;BME280;42916;54.346;18.562;2022-08-21T10:48:25;100122.60;;;20.42;100.00
57024;BME280;42916;54.346;18.562;2022-08-21T10:51:09;100123.96;;;20.42;100.00
57024;BME280;42916;54.346;18.562;2022-08-21T10:56:22;100124.50;;;20.48;100.00
57024;BME280;42916;54.346;18.562;2022-08-21T10:59:23;100128.73;;;20.47;100.00
57024;BME280;42916;54.346;18.562;2022-08-21T11:04:47;100122.95;;;20.28;100.00
57024;BME280;42916;54.346;18.562;2022-08-21T11:07:34;100126.04;;;20.18;100.00
57024;BME280;42916;54.346;18.562;2022-08-21T11:10:24;100132.12;;;20.12;100.00
57024;BME280;42916;54.346;18.562;2022-08-21T11:13:04;100134.73;;;20.07;100.00
57024;BME280;42916;54.346;18.562;2022-08-21T11:15:41;100138.05;;;19.99;100.00
57024;BME280;42916;54.346;18.562;2022-08-21T11:18:26;100142.79;;;19.93;100.00
57024;BME280;42916;54.346;18.562;2022-08-21T11:21:04;100139.09;;;19.87;100.00
57024;BME280;42916;54.346;18.562;2022-08-21T11:23:52;100137.91;;;19.82;100.00
57024;BME280;42916;54.346;18.562;2022-08-21T11:26:27;100141.05;;;19.76;100.00
57024;BME280;42916;54.346;18.562;2022-08-21T11:29:02;100143.77;;;19.75;100.00
57024;BME280;42916;54.346;18.562;2022-08-21T11:37:23;100151.55;;;19.67;100.00
57024;BME280;42916;54.346;18.562;2022-08-21T11:40:00;100157.83;;;19.66;100.00
57024;BME280;42916;54.346;18.562;2022-08-21T11:45:54;100163.65;;;19.69;100.00
57024;BME280;42916;54.346;18.562;2022-08-21T11:51:15;100174.84;;;19.63;100.00
57024;BME280;42916;54.346;18.562;2022-08-21T11:53:49;100176.48;;;19.67;100.00
57024;BME280;42916;54.346;18.562;2022-08-21T11:56:27;100174.11;;;19.70;100.00
57024;BME280;42916;54.346;18.562;2022-08-21T11:59:04;100177.27;;;19.75;100.00
57024;BME280;42916;54.346;18.562;2022-08-21T12:01:36;100170.02;;;19.80;100.00
57024;BME280;42916;54.346;18.562;2022-08-21T12:04:26;100168.11;;;19.80;100.00
57024;BME280;42916;54.346;18.562;2022-08-21T12:06:54;100157.94;;;19.76;100.00
57024;BME280;42916;54.346;18.562;2022-08-21T12:11:59;100166.33;;;19.82;100.00
57024;BME280;42916;54.346;18.562;2022-08-21T12:14:39;100164.08;;;19.78;100.00
57024;BME280;42916;54.346;18.562;2022-08-21T12:17:07;100162.98;;;19.73;100.00
57024;BME280;42916;54.346;18.562;2022-08-21T12:19:35;100160.90;;;19.73;100.00
57024;BME280;42916;54.346;18.562;2022-08-21T12:24:36;100157.13;;;19.72;100.00
57024;BME280;42916;54.346;18.562;2022-08-21T12:27:28;100160.76;;;19.66;100.00
57024;BME280;42916;54.346;18.562;2022-08-21T12:29:59;100160.88;;;19.63;100.00
57024;BME280;42916;54.346;18.562;2022-08-21T12:32:31;100159.57;;;19.60;100.00
57024;BME280;42916;54.346;18.562;2022-08-21T12:35:18;100157.37;;;19.58;100.00
57024;BME280;42916;54.346;18.562;2022-08-21T12:37:50;100156.75;;;19.56;100.00
57024;BME280;42916;54.346;18.562;2022-08-21T12:40:23;100162.97;;;19.51;100.00
57024;BME280;42916;54.346;18.562;2022-08-21T12:42:53;100168.05;;;19.46;100.00
57024;BME280;42916;54.346;18.562;2022-08-21T12:45:44;100175.50;;;19.43;100.00
57024;BME280;42916;54.346;18.562;2022-08-21T12:48:31;100181.55;;;19.40;100.00
57024;BME280;42916;54.346;18.562;2022-08-21T12:51:10;100191.52;;;19.39;100.00
57024;BME280;42916;54.346;18.562;2022-08-21T12:53:52;100192.87;;;19.42;100.00
57024;BME280;42916;54.346;18.562;2022-08-21T12:56:22;100193.36;;;19.44;100.00
57024;BME280;42916;54.346;18.562;2022-08-21T12:59:00;100189.81;;;19.43;100.00
57024;BME280;42916;54.346;18.562;2022-08-21T13:01:32;100191.02;;;19.39;100.00
57024;BME280;42916;54.346;18.562;2022-08-21T13:04:07;100188.63;;;19.37;100.00
57024;BME280;42916;54.346;18.562;2022-08-21T13:06:39;100194.42;;;19.35;100.00
57024;BME280;42916;54.346;18.562;2022-08-21T13:09:11;100200.42;;;19.32;100.00
57024;BME280;42916;54.346;18.562;2022-08-21T13:11:41;100206.34;;;19.36;100.00
57024;BME280;42916;54.346;18.562;2022-08-21T13:14:38;100206.84;;;19.37;100.00
57024;BME280;42916;54.346;18.562;2022-08-21T13:17:06;100210.57;;;19.40;100.00
57024;BME280;42916;54.346;18.562;2022-08-21T13:19:33;100206.36;;;19.41;100.00
57024;BME280;42916;54.346;18.562;2022-08-21T13:22:01;100206.88;;;19.34;100.00
57024;BME280;42916;54.346;18.562;2022-08-21T13:24:35;100211.19;;;19.24;100.00
57024;BME280;42916;54.346;18.562;2022-08-21T13:27:21;100217.36;;;19.14;100.00
57024;BME280;42916;54.346;18.562;2022-08-21T13:29:48;100215.25;;;19.10;100.00
57024;BME280;42916;54.346;18.562;2022-08-21T13:32:22;100214.45;;;19.11;100.00
57024;BME280;42916;54.346;18.562;2022-08-21T13:34:51;100214.52;;;19.13;100.00
57024;BME280;42916;54.346;18.562;2022-08-21T13:37:18;100212.04;;;19.09;100.00